createdAt,value
2023-01-07T00:01:41.169Z,98838.13
2023-01-07T00:04:12.928Z,98829.84
2023-01-07T00:06:42.707Z,98830.03
2023-01-07T00:09:14.197Z,98826.69
2023-01-07T00:11:41.892Z,98828.94
2023-01-07T00:14:11.790Z,98828.44
2023-01-07T00:16:39.798Z,98825.59
2023-01-07T00:19:08.655Z,98823.88
2023-01-07T00:21:35.839Z,98827.00
2023-01-07T00:24:06.527Z,98826.63
2023-01-07T00:26:37.114Z,98822.13
2023-01-07T00:29:05.932Z,98815.41
2023-01-07T00:31:36.154Z,98798.03
2023-01-07T00:34:03.819Z,98805.34
2023-01-07T00:36:41.279Z,98796.56
2023-01-07T00:39:14.114Z,98807.16
2023-01-07T00:42:01.716Z,98798.25
2023-01-07T00:44:29.790Z,98792.13
2023-01-07T00:46:57.638Z,98787.34
2023-01-07T00:49:24.619Z,98793.44
2023-01-07T00:51:52.584Z,98792.13
2023-01-07T00:54:20.233Z,98793.78
2023-01-07T00:56:47.221Z,98787.50
2023-01-07T00:59:14.306Z,98783.69
2023-01-07T01:01:42.908Z,98780.66
2023-01-07T01:04:09.904Z,98776.63
2023-01-07T01:06:36.914Z,98770.13
2023-01-07T01:09:04.143Z,98760.22
2023-01-07T01:11:31.130Z,98769.94
2023-01-07T01:13:58.148Z,98771.63
2023-01-07T01:16:25.417Z,98772.09
2023-01-07T01:18:52.455Z,98760.19
2023-01-07T01:21:19.503Z,98768.91
2023-01-07T01:23:46.529Z,98769.94
2023-01-07T01:26:16.036Z,98777.72
2023-01-07T01:28:43.970Z,98762.88
2023-01-07T01:31:13.105Z,98769.09
2023-01-07T01:33:49.141Z,98764.59
2023-01-07T01:36:17.371Z,98767.59
2023-01-07T01:38:44.328Z,98762.50
2023-01-07T01:41:16.211Z,98771.25
2023-01-07T01:43:45.355Z,98771.16
2023-01-07T01:46:40.057Z,98768.91
2023-01-07T01:49:20.534Z,98770.78
2023-01-07T01:51:58.306Z,98766.28
2023-01-07T01:54:26.153Z,98760.63
2023-01-07T01:56:59.148Z,98760.84
2023-01-07T01:59:31.054Z,98759.16
2023-01-07T02:02:02.694Z,98761.03
2023-01-07T02:04:31.761Z,98761.47
2023-01-07T02:07:15.919Z,98757.34
2023-01-07T02:10:05.793Z,98754.25
2023-01-07T02:13:00.661Z,98750.50
2023-01-07T02:15:52.079Z,98749.75
2023-01-07T02:18:59.595Z,98742.56
2023-01-07T02:22:07.929Z,98729.22
2023-01-07T02:25:02.310Z,98735.88
2023-01-07T02:27:38.877Z,98726.25
2023-01-07T02:30:29.999Z,98732.94
2023-01-07T02:33:41.279Z,98726.38
2023-01-07T02:36:31.434Z,98723.19
2023-01-07T02:39:10.378Z,98727.41
2023-01-07T02:41:54.024Z,98726.31
2023-01-07T02:44:40.441Z,98719.75
2023-01-07T02:47:24.238Z,98708.78
2023-01-07T02:49:52.340Z,98704.00
2023-01-07T02:52:26.548Z,98703.47
2023-01-07T02:55:19.456Z,98703.53
2023-01-07T02:58:14.037Z,98699.66
2023-01-07T03:01:34.854Z,98694.78
2023-01-07T03:04:20.959Z,98697.19
2023-01-07T03:07:24.355Z,98693.72
2023-01-07T03:10:11.587Z,98693.22
2023-01-07T03:12:50.269Z,98680.88
2023-01-07T03:15:29.150Z,98684.81
2023-01-07T03:18:05.981Z,98678.22
2023-01-07T03:20:37.564Z,98668.69
2023-01-07T03:23:12.055Z,98673.44
2023-01-07T03:25:45.763Z,98675.63
2023-01-07T03:28:16.059Z,98663.44
2023-01-07T03:30:44.976Z,98661.53
2023-01-07T03:33:26.766Z,98659.38
2023-01-07T03:35:56.021Z,98649.97
2023-01-07T03:38:23.870Z,98654.88
2023-01-07T03:40:52.356Z,98654.97
2023-01-07T03:43:22.277Z,98654.06
2023-01-07T03:45:51.331Z,98651.03
2023-01-07T03:48:18.479Z,98651.59
2023-01-07T03:50:45.870Z,98643.56
2023-01-07T03:53:12.845Z,98637.06
2023-01-07T03:55:45.188Z,98638.88
2023-01-07T03:58:12.614Z,98636.88
2023-01-07T04:00:40.085Z,98629.50
2023-01-07T04:03:16.038Z,98622.63
2023-01-07T04:05:45.975Z,98632.31
2023-01-07T04:08:14.005Z,98630.22
2023-01-07T04:10:41.772Z,98624.19
2023-01-07T04:13:09.365Z,98620.69
2023-01-07T04:15:37.051Z,98624.72
2023-01-07T04:18:04.546Z,98614.44
2023-01-07T04:20:32.249Z,98615.75
2023-01-07T04:23:00.266Z,98615.06
2023-01-07T04:25:27.764Z,98608.88
2023-01-07T04:27:55.515Z,98603.94
2023-01-07T04:30:23.854Z,98602.56
2023-01-07T04:32:52.045Z,98610.56
2023-01-07T04:35:19.052Z,98607.94
2023-01-07T04:37:46.013Z,98601.72
2023-01-07T04:40:13.167Z,98608.13
2023-01-07T04:42:40.175Z,98614.94
2023-01-07T04:45:09.599Z,98604.66
2023-01-07T04:47:36.628Z,98602.66
2023-01-07T04:50:04.501Z,98588.75
2023-01-07T04:52:34.415Z,98591.03
2023-01-07T04:55:01.761Z,98596.00
2023-01-07T04:57:28.774Z,98590.53
2023-01-07T04:59:55.777Z,98591.28
2023-01-07T05:02:22.979Z,98577.34
2023-01-07T05:04:50.216Z,98583.94
2023-01-07T05:07:18.892Z,98579.75
2023-01-07T05:09:46.035Z,98572.56
2023-01-07T05:12:13.313Z,98571.69
2023-01-07T05:14:42.694Z,98567.72
2023-01-07T05:17:10.228Z,98570.31
2023-01-07T05:19:38.777Z,98571.53
2023-01-07T05:22:06.679Z,98567.31
2023-01-07T05:24:38.648Z,98560.13
2023-01-07T05:27:06.165Z,98562.66
2023-01-07T05:29:34.953Z,98556.56
2023-01-07T05:32:01.941Z,98552.56
2023-01-07T05:34:29.649Z,98544.22
2023-01-07T05:36:58.399Z,98549.25
2023-01-07T05:39:26.429Z,98551.00
2023-01-07T05:41:54.258Z,98543.31
2023-01-07T05:44:24.042Z,98544.16
2023-01-07T05:46:51.054Z,98536.16
2023-01-07T05:49:18.177Z,98536.25
2023-01-07T05:51:45.107Z,98539.78
2023-01-07T05:54:12.102Z,98530.78
2023-01-07T05:56:39.025Z,98531.50
2023-01-07T05:59:06.042Z,98527.59
2023-01-07T06:01:33.260Z,98524.13
2023-01-07T06:04:00.306Z,98524.00
2023-01-07T06:06:27.356Z,98523.53
2023-01-07T06:08:54.321Z,98516.31
2023-01-07T06:11:21.396Z,98522.72
2023-01-07T06:13:48.420Z,98517.28
2023-01-07T06:16:15.805Z,98518.97
2023-01-07T06:18:42.783Z,98524.06
2023-01-07T06:21:09.949Z,98516.16
2023-01-07T06:23:37.192Z,98514.66
2023-01-07T06:26:04.394Z,98517.03
2023-01-07T06:28:31.463Z,98515.09
2023-01-07T06:30:58.618Z,98510.78
2023-01-07T06:33:25.616Z,98514.91
2023-01-07T06:35:52.605Z,98505.31
2023-01-07T06:38:19.592Z,98505.06
2023-01-07T06:40:46.551Z,98507.56
2023-01-07T06:43:13.610Z,98508.19
2023-01-07T06:45:41.704Z,98504.56
2023-01-07T06:48:09.297Z,98508.72
2023-01-07T06:50:36.701Z,98504.09
2023-01-07T06:53:03.935Z,98503.72
2023-01-07T06:55:30.935Z,98492.94
2023-01-07T06:57:57.882Z,98487.81
2023-01-07T07:00:24.863Z,98486.66
2023-01-07T07:02:52.192Z,98485.84
2023-01-07T07:05:19.669Z,98488.59
2023-01-07T07:07:46.986Z,98490.81
2023-01-07T07:10:14.549Z,98497.75
2023-01-07T07:12:41.769Z,98494.28
2023-01-07T07:15:09.573Z,98499.66
2023-01-07T07:17:36.927Z,98500.50
2023-01-07T07:20:05.058Z,98492.50
2023-01-07T07:22:32.392Z,98492.63
2023-01-07T07:24:59.705Z,98491.56
2023-01-07T07:27:26.714Z,98497.16
2023-01-07T07:29:53.734Z,98496.00
2023-01-07T07:32:21.050Z,98488.94
2023-01-07T07:34:48.453Z,98487.44
2023-01-07T07:37:15.813Z,98500.63
2023-01-07T07:39:42.769Z,98497.81
2023-01-07T07:42:09.684Z,98498.34
2023-01-07T07:44:37.161Z,98496.63
2023-01-07T07:47:04.630Z,98497.72
2023-01-07T07:49:31.612Z,98489.25
2023-01-07T07:51:58.598Z,98492.63
2023-01-07T07:54:25.655Z,98490.44
2023-01-07T07:56:53.074Z,98491.38
2023-01-07T07:59:20.105Z,98488.94
2023-01-07T08:01:47.170Z,98492.41
2023-01-07T08:04:14.234Z,98481.03
2023-01-07T08:06:41.187Z,98486.63
2023-01-07T08:09:08.444Z,98491.88
2023-01-07T08:11:35.363Z,98484.00
2023-01-07T08:14:02.468Z,98486.63
2023-01-07T08:16:29.585Z,98476.09
2023-01-07T08:18:56.597Z,98476.00
2023-01-07T08:21:23.490Z,98482.09
2023-01-07T08:23:50.460Z,98478.63
2023-01-07T08:26:17.421Z,98471.47
2023-01-07T08:28:46.565Z,98474.03
2023-01-07T08:31:13.834Z,98471.59
2023-01-07T08:33:40.867Z,98476.88
2023-01-07T08:36:22.124Z,98476.13
2023-01-07T08:38:54.047Z,98471.59
2023-01-07T08:41:23.233Z,98474.75
2023-01-07T08:43:50.520Z,98469.78
2023-01-07T08:46:17.644Z,98470.53
2023-01-07T08:48:44.644Z,98465.34
2023-01-07T08:51:11.737Z,98460.75
2023-01-07T08:53:38.646Z,98461.47
2023-01-07T08:56:05.807Z,98465.88
2023-01-07T08:58:32.786Z,98460.72
2023-01-07T09:01:06.016Z,98463.66
2023-01-07T09:03:34.445Z,98465.13
2023-01-07T09:06:01.402Z,98459.34
2023-01-07T09:08:28.406Z,98461.66
2023-01-07T09:10:56.101Z,98466.75
2023-01-07T09:13:23.493Z,98476.31
2023-01-07T09:15:50.454Z,98464.53
2023-01-07T09:18:17.429Z,98459.56
2023-01-07T09:20:44.857Z,98471.47
2023-01-07T09:23:12.081Z,98474.09
2023-01-07T09:25:38.982Z,98459.56
2023-01-07T09:28:05.929Z,98464.00
2023-01-07T09:30:33.016Z,98463.25
2023-01-07T09:33:00.124Z,98453.25
2023-01-07T09:35:27.420Z,98458.41
2023-01-07T09:37:54.362Z,98463.31
2023-01-07T09:40:38.950Z,98469.47
2023-01-07T09:44:00.623Z,98474.06
2023-01-07T09:46:29.438Z,98472.28
2023-01-07T09:49:02.855Z,98471.97
2023-01-07T09:51:38.472Z,98468.38
2023-01-07T09:54:40.722Z,98467.63
2023-01-07T09:57:14.840Z,98462.50
2023-01-07T09:59:41.840Z,98466.03
2023-01-07T10:02:54.698Z,98468.84
2023-01-07T10:06:11.644Z,98453.88
2023-01-07T10:09:07.586Z,98445.34
2023-01-07T10:12:03.178Z,98434.38
2023-01-07T10:14:47.730Z,98436.34
2023-01-07T10:17:43.486Z,98433.78
2023-01-07T10:20:47.374Z,98436.94
2023-01-07T10:23:21.630Z,98432.97
2023-01-07T10:25:53.901Z,98423.31
2023-01-07T10:28:50.744Z,98428.81
2023-01-07T10:31:22.903Z,98413.31
2023-01-07T10:33:51.868Z,98413.34
2023-01-07T10:37:03.489Z,98403.50
2023-01-07T10:39:44.337Z,98395.88
2023-01-07T10:42:27.511Z,98390.00
2023-01-07T10:45:25.286Z,98391.19
2023-01-07T10:48:11.918Z,98384.63
2023-01-07T10:51:03.754Z,98376.56
2023-01-07T10:53:57.068Z,98384.53
2023-01-07T10:56:40.104Z,98376.09
2023-01-07T10:59:17.696Z,98382.22
2023-01-07T11:01:52.079Z,98370.28
2023-01-07T11:04:19.528Z,98368.13
2023-01-07T11:06:55.255Z,98363.19
2023-01-07T11:09:31.755Z,98363.31
2023-01-07T11:12:14.113Z,98360.75
2023-01-07T11:14:42.143Z,98363.09
2023-01-07T11:17:44.840Z,98354.28
2023-01-07T11:20:12.570Z,98352.03
2023-01-07T11:22:40.168Z,98343.22
2023-01-07T11:25:36.353Z,98337.88
2023-01-07T11:28:04.049Z,98327.34
2023-01-07T11:30:33.313Z,98326.28
2023-01-07T11:33:06.393Z,98319.19
2023-01-07T11:35:33.804Z,98308.31
2023-01-07T11:38:00.965Z,98318.06
2023-01-07T11:40:30.724Z,98308.09
2023-01-07T11:43:16.627Z,98302.25
2023-01-07T11:46:19.705Z,98297.41
2023-01-07T11:49:01.027Z,98281.31
2023-01-07T11:51:40.363Z,98280.53
2023-01-07T11:54:23.280Z,98276.66
2023-01-07T11:56:51.435Z,98276.88
2023-01-07T11:59:19.244Z,98266.16
2023-01-07T12:01:52.953Z,98261.03
2023-01-07T12:04:30.417Z,98251.25
2023-01-07T12:07:01.490Z,98262.41
2023-01-07T12:09:38.832Z,98252.91
2023-01-07T12:12:31.777Z,98237.97
2023-01-07T12:15:23.963Z,98232.91
2023-01-07T12:18:17.911Z,98239.63
2023-01-07T12:21:12.620Z,98231.81
2023-01-07T12:24:23.288Z,98225.53
2023-01-07T12:27:00.735Z,98216.97
2023-01-07T12:29:40.891Z,98214.22
2023-01-07T12:32:31.635Z,98215.50
2023-01-07T12:35:14.572Z,98204.16
2023-01-07T12:38:09.350Z,98189.13
2023-01-07T12:40:58.145Z,98177.47
2023-01-07T12:43:41.337Z,98182.69
2023-01-07T12:46:13.778Z,98176.22
2023-01-07T12:49:02.219Z,98165.00
2023-01-07T12:51:37.151Z,98163.19
2023-01-07T12:54:33.484Z,98173.75
2023-01-07T12:57:16.761Z,98153.63
2023-01-07T13:00:12.103Z,98154.84
2023-01-07T13:02:58.516Z,98156.38
2023-01-07T13:05:36.445Z,98142.41
2023-01-07T13:08:37.555Z,98143.69
2023-01-07T13:11:41.976Z,98146.78
2023-01-07T13:14:24.299Z,98133.63
2023-01-07T13:16:51.265Z,98142.66
2023-01-07T13:19:18.328Z,98123.44
2023-01-07T13:21:49.548Z,98126.84
2023-01-07T13:24:54.459Z,98126.16
2023-01-07T13:27:52.269Z,98122.72
2023-01-07T13:30:41.892Z,98114.72
2023-01-07T13:33:30.262Z,98112.97
2023-01-07T13:36:12.726Z,98118.31
2023-01-07T13:39:10.137Z,98111.84
2023-01-07T13:42:22.436Z,98103.28
2023-01-07T13:45:02.038Z,98112.13
2023-01-07T13:47:53.971Z,98103.25
2023-01-07T13:50:31.311Z,98108.72
2023-01-07T13:53:07.813Z,98102.56
2023-01-07T13:55:41.332Z,98097.47
2023-01-07T13:58:30.564Z,98101.44
2023-01-07T14:01:13.771Z,98106.22
2023-01-07T14:04:35.835Z,98108.09
2023-01-07T14:07:03.339Z,98094.84
2023-01-07T14:09:36.983Z,98091.28
2023-01-07T14:12:39.329Z,98077.03
2023-01-07T14:15:33.175Z,98086.44
2023-01-07T14:18:30.611Z,98090.19
2023-01-07T14:21:40.212Z,98093.78
2023-01-07T14:24:42.314Z,98096.34
2023-01-07T14:27:45.999Z,98091.72
2023-01-07T14:30:28.516Z,98094.06
2023-01-07T14:33:02.864Z,98095.34
2023-01-07T14:35:40.588Z,98100.72
2023-01-07T14:38:26.586Z,98094.38
2023-01-07T14:41:08.496Z,98094.91
2023-01-07T14:43:48.445Z,98098.66
2023-01-07T14:46:24.757Z,98099.75
2023-01-07T14:49:04.048Z,98099.97
2023-01-07T14:51:43.415Z,98097.47
2023-01-07T14:54:32.768Z,98093.06
2023-01-07T14:57:25.459Z,98096.59
2023-01-07T15:00:31.529Z,98093.47
2023-01-07T15:03:20.019Z,98091.09
2023-01-07T15:06:25.150Z,98095.78
2023-01-07T15:09:14.000Z,98095.19
2023-01-07T15:12:00.940Z,98097.22
2023-01-07T15:14:48.962Z,98090.75
2023-01-07T15:17:17.136Z,98085.38
2023-01-07T15:19:45.159Z,98090.56
2023-01-07T15:22:21.261Z,98096.09
2023-01-07T15:25:13.441Z,98091.44
2023-01-07T15:27:59.784Z,98090.84
2023-01-07T15:30:48.727Z,98088.09
2023-01-07T15:33:28.231Z,98088.56
2023-01-07T15:35:56.615Z,98090.72
2023-01-07T15:38:44.337Z,98082.69
2023-01-07T15:41:38.324Z,98076.34
2023-01-07T15:44:13.589Z,98072.50
2023-01-07T15:46:41.699Z,98063.69
2023-01-07T15:49:11.872Z,98067.28
2023-01-07T15:51:41.148Z,98061.63
2023-01-07T15:54:23.307Z,98065.91
2023-01-07T15:56:54.388Z,98064.16
2023-01-07T15:59:30.848Z,98058.66
2023-01-07T16:02:25.481Z,98058.75
2023-01-07T16:04:56.274Z,98048.91
2023-01-07T16:07:44.889Z,98041.88
2023-01-07T16:10:33.079Z,98051.69
2023-01-07T16:13:20.347Z,98050.31
2023-01-07T16:15:47.361Z,98047.53
2023-01-07T16:18:14.744Z,98042.91
2023-01-07T16:20:55.515Z,98047.44
2023-01-07T16:23:31.967Z,98047.28
2023-01-07T16:26:27.028Z,98050.16
2023-01-07T16:28:59.648Z,98051.00
2023-01-07T16:31:29.648Z,98055.03
2023-01-07T16:33:59.044Z,98058.34
2023-01-07T16:36:32.573Z,98053.97
2023-01-07T16:39:21.297Z,98059.06
2023-01-07T16:41:48.645Z,98055.13
2023-01-07T16:44:44.902Z,98055.28
2023-01-07T16:47:23.372Z,98062.75
2023-01-07T16:49:54.810Z,98058.88
2023-01-07T16:52:30.146Z,98069.44
2023-01-07T16:54:57.108Z,98067.47
2023-01-07T16:57:32.058Z,98062.78
2023-01-07T17:00:02.127Z,98061.22
2023-01-07T17:02:40.230Z,98063.25
2023-01-07T17:05:19.141Z,98067.81
2023-01-07T17:07:53.618Z,98065.38
2023-01-07T17:10:26.864Z,98057.84
2023-01-07T17:13:05.463Z,98060.25
2023-01-07T17:15:32.849Z,98061.28
2023-01-07T17:18:12.421Z,98051.66
2023-01-07T17:20:45.596Z,98047.94
2023-01-07T17:23:27.965Z,98051.53
2023-01-07T17:26:21.577Z,98046.66
2023-01-07T17:29:00.469Z,98044.16
2023-01-07T17:31:28.586Z,98041.59
2023-01-07T17:33:56.600Z,98029.47
2023-01-07T17:36:25.879Z,98033.56
2023-01-07T17:38:53.799Z,98028.31
2023-01-07T17:41:41.555Z,98022.72
2023-01-07T17:44:14.492Z,98019.22
2023-01-07T17:46:42.476Z,98020.00
2023-01-07T17:49:11.466Z,98016.44
2023-01-07T17:51:42.386Z,98027.06
2023-01-07T17:54:24.310Z,98017.97
2023-01-07T17:56:52.349Z,98024.63
2023-01-07T17:59:22.223Z,98018.06
2023-01-07T18:01:51.363Z,98018.38
2023-01-07T18:04:19.013Z,98018.75
2023-01-07T18:06:46.478Z,98018.66
2023-01-07T18:09:13.835Z,98018.84
2023-01-07T18:12:02.824Z,98022.25
2023-01-07T18:14:32.298Z,98014.47
2023-01-07T18:16:59.719Z,98010.69
2023-01-07T18:19:27.136Z,98012.81
2023-01-07T18:21:54.615Z,98017.28
2023-01-07T18:24:22.264Z,98021.94
2023-01-07T18:26:49.631Z,98022.69
2023-01-07T18:29:16.940Z,98020.88
2023-01-07T18:31:45.709Z,98014.91
2023-01-07T18:34:15.003Z,98024.47
2023-01-07T18:36:42.679Z,98019.25
2023-01-07T18:39:17.453Z,98020.50
2023-01-07T18:41:48.671Z,98024.88
2023-01-07T18:44:18.938Z,98025.50
2023-01-07T18:46:46.521Z,98019.53
2023-01-07T18:49:14.428Z,98018.69
2023-01-07T18:51:41.813Z,98014.25
2023-01-07T18:54:09.173Z,98004.81
2023-01-07T18:56:36.585Z,98007.16
2023-01-07T18:59:03.928Z,98009.25
2023-01-07T19:01:31.543Z,98008.19
2023-01-07T19:03:59.050Z,97999.69
2023-01-07T19:06:26.448Z,98002.28
2023-01-07T19:08:55.392Z,97996.56
2023-01-07T19:11:22.758Z,98004.38
2023-01-07T19:13:50.070Z,97998.28
2023-01-07T19:16:17.437Z,97996.72
2023-01-07T19:18:44.822Z,98001.50
2023-01-07T19:21:12.929Z,97998.06
2023-01-07T19:23:40.622Z,97988.84
2023-01-07T19:26:09.588Z,97986.66
2023-01-07T19:28:37.032Z,97990.56
2023-01-07T19:31:08.510Z,97998.97
2023-01-07T19:33:36.639Z,97995.91
2023-01-07T19:36:10.121Z,97994.16
2023-01-07T19:38:47.778Z,97985.34
2023-01-07T19:41:20.423Z,97982.91
2023-01-07T19:43:49.071Z,97970.97
2023-01-07T19:46:16.418Z,97974.56
2023-01-07T19:48:43.490Z,97983.38
2023-01-07T19:51:11.108Z,97976.16
2023-01-07T19:53:38.971Z,97986.88
2023-01-07T19:56:09.634Z,97982.88
2023-01-07T19:58:37.457Z,97988.78
2023-01-07T20:01:26.402Z,97991.53
2023-01-07T20:03:56.265Z,97987.56
2023-01-07T20:06:29.808Z,97990.34
2023-01-07T20:08:58.371Z,97989.38
2023-01-07T20:11:25.699Z,97991.72
2023-01-07T20:13:52.704Z,97989.81
2023-01-07T20:16:24.456Z,97978.88
2023-01-07T20:18:54.240Z,97978.31
2023-01-07T20:21:26.224Z,97972.56
2023-01-07T20:23:54.260Z,97973.09
2023-01-07T20:26:32.545Z,97966.97
2023-01-07T20:29:00.354Z,97966.59
2023-01-07T20:31:29.747Z,97958.44
2023-01-07T20:33:57.626Z,97960.88
2023-01-07T20:36:29.005Z,97959.25
2023-01-07T20:38:56.210Z,97965.47
2023-01-07T20:41:27.680Z,97963.63
2023-01-07T20:44:00.704Z,97957.22
2023-01-07T20:46:29.536Z,97948.28
2023-01-07T20:48:57.439Z,97950.78
2023-01-07T20:51:24.913Z,97950.00
2023-01-07T20:53:52.360Z,97944.00
2023-01-07T20:56:24.058Z,97940.13
2023-01-07T20:58:51.220Z,97919.66
2023-01-07T21:01:21.416Z,97936.00
2023-01-07T21:03:49.121Z,97935.53
2023-01-07T21:06:18.706Z,97940.03
2023-01-07T21:08:47.716Z,97946.22
2023-01-07T21:11:19.407Z,97945.38
2023-01-07T21:13:47.386Z,97949.06
2023-01-07T21:16:14.978Z,97954.41
2023-01-07T21:18:42.182Z,97945.34
2023-01-07T21:21:17.051Z,97939.97
2023-01-07T21:23:46.789Z,97943.03
2023-01-07T21:26:14.826Z,97944.28
2023-01-07T21:28:44.317Z,97954.22
2023-01-07T21:31:14.197Z,97947.72
2023-01-07T21:33:41.791Z,97945.75
2023-01-07T21:36:11.246Z,97938.81
2023-01-07T21:38:39.107Z,97921.94
2023-01-07T21:41:13.119Z,97923.22
2023-01-07T21:43:46.302Z,97922.84
2023-01-07T21:46:14.601Z,97919.38
2023-01-07T21:48:46.703Z,97923.84
2023-01-07T21:51:22.563Z,97911.28
2023-01-07T21:53:52.125Z,97907.34
2023-01-07T21:56:19.636Z,97905.34
2023-01-07T21:58:47.127Z,97909.19
2023-01-07T22:01:15.631Z,97905.47
2023-01-07T22:03:46.601Z,97905.81
2023-01-07T22:06:29.709Z,97907.47
2023-01-07T22:09:00.116Z,97912.63
2023-01-07T22:11:27.500Z,97918.56
2023-01-07T22:13:57.581Z,97926.56
2023-01-07T22:16:27.557Z,97923.13
2023-01-07T22:18:54.708Z,97921.16
2023-01-07T22:21:22.082Z,97919.66
2023-01-07T22:23:49.607Z,97914.09
2023-01-07T22:26:19.483Z,97905.66
2023-01-07T22:28:58.072Z,97900.34
2023-01-07T22:31:27.117Z,97894.56
2023-01-07T22:33:55.169Z,97883.34
2023-01-07T22:36:30.545Z,97888.75
2023-01-07T22:39:02.700Z,97892.53
2023-01-07T22:41:32.023Z,97891.94
2023-01-07T22:44:06.273Z,97888.81
2023-01-07T22:46:34.572Z,97896.44
2023-01-07T22:49:01.651Z,97884.91
2023-01-07T22:51:34.692Z,97888.19
2023-01-07T22:54:03.000Z,97888.94
2023-01-07T22:56:30.493Z,97883.41
2023-01-07T22:58:57.504Z,97876.13
2023-01-07T23:01:24.530Z,97886.56
2023-01-07T23:03:52.044Z,97888.75
2023-01-07T23:06:19.478Z,97874.84
2023-01-07T23:08:46.539Z,97874.78
2023-01-07T23:11:36.502Z,97868.97
2023-01-07T23:14:04.145Z,97868.38
2023-01-07T23:16:31.327Z,97868.28
2023-01-07T23:18:58.500Z,97863.19
2023-01-07T23:21:25.894Z,97862.50
2023-01-07T23:23:53.232Z,97861.22
2023-01-07T23:26:20.255Z,97858.88
2023-01-07T23:28:47.182Z,97847.63
2023-01-07T23:31:14.217Z,97848.53
2023-01-07T23:33:41.257Z,97837.75
2023-01-07T23:36:09.867Z,97838.34
2023-01-07T23:38:37.130Z,97826.06
2023-01-07T23:41:07.620Z,97836.56
2023-01-07T23:43:35.451Z,97825.38
2023-01-07T23:46:05.298Z,97820.81
2023-01-07T23:48:35.896Z,97818.44
2023-01-07T23:51:10.579Z,97818.78
2023-01-07T23:53:37.735Z,97822.47
2023-01-07T23:56:06.199Z,97816.53
2023-01-07T23:58:33.824Z,97816.66
